createdAt,value
2019-04-28T00:01:21.697Z,34.98
2019-04-28T00:03:51.615Z,40.48
2019-04-28T00:06:21.124Z,38.60
2019-04-28T00:08:51.777Z,36.80
2019-04-28T00:11:21.740Z,36.98
2019-04-28T00:13:53.215Z,36.20
2019-04-28T00:16:22.755Z,35.65
2019-04-28T00:18:51.546Z,35.25
2019-04-28T00:21:24.235Z,33.98
2019-04-28T00:23:57.329Z,36.45
2019-04-28T00:26:40.996Z,34.65
2019-04-28T00:31:37.442Z,37.13
2019-04-28T00:34:06.377Z,32.40
2019-04-28T00:36:35.156Z,34.15
2019-04-28T00:39:04.103Z,33.13
2019-04-28T00:41:32.640Z,36.58
2019-04-28T00:44:01.947Z,35.00
2019-04-28T00:46:37.525Z,36.05
2019-04-28T00:49:06.099Z,37.38
2019-04-28T00:51:34.648Z,34.80
2019-04-28T00:54:03.128Z,34.13
2019-04-28T00:56:31.792Z,35.48
2019-04-28T00:59:01.645Z,35.68
2019-04-28T01:01:42.543Z,32.78
2019-04-28T01:04:11.800Z,35.73
2019-04-28T01:06:42.884Z,33.13
2019-04-28T01:09:11.858Z,37.75
2019-04-28T01:11:41.443Z,38.65
2019-04-28T01:14:11.485Z,35.38
2019-04-28T01:16:41.847Z,34.05
2019-04-28T01:19:20.734Z,35.03
2019-04-28T01:22:10.303Z,32.30
2019-04-28T01:24:40.485Z,32.53
2019-04-28T01:27:11.123Z,34.43
2019-04-28T01:29:40.270Z,29.40
2019-04-28T01:32:30.187Z,29.32
2019-04-28T01:34:59.846Z,28.27
2019-04-28T01:37:29.604Z,32.48
2019-04-28T01:39:59.706Z,28.45
2019-04-28T01:42:30.108Z,30.85
2019-04-28T01:45:00.492Z,28.45
2019-04-28T01:47:30.458Z,27.55
2019-04-28T01:50:00.181Z,26.80
2019-04-28T01:52:30.304Z,29.37
2019-04-28T01:55:00.505Z,54.73
2019-04-28T01:57:29.980Z,30.32
2019-04-28T02:00:00.029Z,27.45
2019-04-28T02:02:29.996Z,33.02
2019-04-28T02:04:59.896Z,30.77
2019-04-28T02:07:32.639Z,29.37
2019-04-28T02:10:00.584Z,27.37
2019-04-28T02:12:30.463Z,30.45
2019-04-28T02:15:01.021Z,34.27
2019-04-28T02:17:30.472Z,35.70
2019-04-28T02:20:00.860Z,37.10
2019-04-28T02:22:32.215Z,34.23
2019-04-28T02:25:01.376Z,34.05
2019-04-28T02:27:30.282Z,36.33
2019-04-28T02:30:00.073Z,35.92
2019-04-28T02:32:30.986Z,37.25
2019-04-28T02:35:01.172Z,36.45
2019-04-28T02:37:30.519Z,34.55
2019-04-28T02:40:00.506Z,33.98
2019-04-28T02:42:30.907Z,36.73
2019-04-28T02:45:01.031Z,34.08
2019-04-28T02:47:33.520Z,38.05
2019-04-28T02:50:04.155Z,37.58
2019-04-28T02:52:51.943Z,40.05
2019-04-28T02:55:21.318Z,35.20
2019-04-28T02:57:51.683Z,38.20
2019-04-28T03:00:21.588Z,38.25
2019-04-28T03:02:51.476Z,41.55
2019-04-28T03:05:21.536Z,38.70
2019-04-28T03:07:51.657Z,37.83
2019-04-28T03:10:21.408Z,38.75
2019-04-28T03:12:51.832Z,38.45
2019-04-28T03:15:20.765Z,35.17
2019-04-28T03:17:52.433Z,36.45
2019-04-28T03:20:20.984Z,35.90
2019-04-28T03:22:51.018Z,35.03
2019-04-28T03:25:30.220Z,33.58
2019-04-28T03:28:00.632Z,39.00
2019-04-28T03:30:47.182Z,34.95
2019-04-28T03:33:19.122Z,29.92
2019-04-28T03:35:47.596Z,28.92
2019-04-28T03:38:16.149Z,30.48
2019-04-28T03:40:44.761Z,28.70
2019-04-28T03:43:14.348Z,28.50
2019-04-28T03:46:00.745Z,26.40
2019-04-28T03:48:31.242Z,27.77
2019-04-28T03:51:00.757Z,26.05
2019-04-28T03:53:31.270Z,27.65
2019-04-28T03:56:01.588Z,25.20
2019-04-28T03:58:32.479Z,25.02
2019-04-28T04:01:03.231Z,22.37
2019-04-28T04:03:31.262Z,22.70
2019-04-28T04:06:00.715Z,23.45
2019-04-28T04:08:30.904Z,25.50
2019-04-28T04:11:07.101Z,26.17
2019-04-28T04:13:37.375Z,29.05
2019-04-28T04:16:10.494Z,28.45
2019-04-28T04:21:11.881Z,30.70
2019-04-28T04:23:41.139Z,26.73
2019-04-28T04:26:11.714Z,31.97
2019-04-28T04:28:41.590Z,34.08
2019-04-28T04:31:10.564Z,28.38
2019-04-28T04:33:41.111Z,27.67
2019-04-28T04:36:11.608Z,28.35
2019-04-28T04:38:45.831Z,26.77
2019-04-28T04:41:11.337Z,27.52
2019-04-28T04:43:41.538Z,26.25
2019-04-28T04:46:14.760Z,30.35
2019-04-28T04:48:44.673Z,25.15
2019-04-28T04:51:13.281Z,24.63
2019-04-28T04:53:42.168Z,24.60
2019-04-28T04:56:10.773Z,26.33
2019-04-28T04:58:40.733Z,23.62
2019-04-28T05:01:12.790Z,28.75
2019-04-28T05:03:42.972Z,22.48
2019-04-28T05:06:29.825Z,25.05
2019-04-28T05:08:59.937Z,26.10
2019-04-28T05:11:29.954Z,25.65
2019-04-28T05:13:59.659Z,29.82
2019-04-28T05:16:29.810Z,32.75
2019-04-28T05:19:00.053Z,31.40
2019-04-28T05:21:32.794Z,30.75
2019-04-28T05:24:15.788Z,36.03
2019-04-28T05:26:47.839Z,35.35
2019-04-28T05:29:14.566Z,34.33
2019-04-28T05:31:43.096Z,36.75
2019-04-28T05:34:11.848Z,32.58
2019-04-28T05:36:44.420Z,33.88
2019-04-28T05:39:11.082Z,33.80
2019-04-28T05:41:40.073Z,32.75
2019-04-28T05:44:10.035Z,36.05
2019-04-28T05:46:40.214Z,30.48
2019-04-28T05:49:27.177Z,33.40
2019-04-28T05:52:03.218Z,34.45
2019-04-28T05:54:45.413Z,32.35
2019-04-28T05:57:20.538Z,33.00
2019-04-28T05:59:50.658Z,35.25
2019-04-28T06:02:30.686Z,33.70
2019-04-28T06:05:00.030Z,35.38
2019-04-28T06:07:33.139Z,35.65
2019-04-28T06:10:01.619Z,34.30
2019-04-28T06:12:31.921Z,33.38
2019-04-28T06:15:00.634Z,36.73
2019-04-28T06:17:29.525Z,38.08
2019-04-28T06:20:00.028Z,34.58
2019-04-28T06:22:28.632Z,39.80
2019-04-28T06:24:57.163Z,35.50
2019-04-28T06:27:25.763Z,37.45
2019-04-28T06:29:54.547Z,37.38
2019-04-28T06:32:23.008Z,39.63
2019-04-28T06:34:51.559Z,33.90
2019-04-28T06:37:20.095Z,39.18
2019-04-28T06:39:48.634Z,35.80
2019-04-28T06:42:17.191Z,34.85
2019-04-28T06:44:45.805Z,37.35
2019-04-28T06:47:16.683Z,44.53
2019-04-28T06:49:44.599Z,33.00
2019-04-28T06:52:13.151Z,39.10
2019-04-28T06:54:41.728Z,40.88
2019-04-28T06:57:11.257Z,38.13
2019-04-28T06:59:39.804Z,36.73
2019-04-28T07:02:08.363Z,31.33
2019-04-28T07:04:36.854Z,34.40
2019-04-28T07:07:05.635Z,33.65
2019-04-28T07:09:34.182Z,28.92
2019-04-28T07:12:02.777Z,28.17
2019-04-28T07:14:31.455Z,28.07
2019-04-28T07:16:59.948Z,25.60
2019-04-28T07:19:28.549Z,27.52
2019-04-28T07:21:58.691Z,22.10
2019-04-28T07:24:27.262Z,26.62
2019-04-28T07:26:55.869Z,24.95
2019-04-28T07:29:24.416Z,26.23
2019-04-28T07:31:53.022Z,26.73
2019-04-28T07:34:21.527Z,23.95
2019-04-28T07:36:50.036Z,25.97
2019-04-28T07:39:18.585Z,27.75
2019-04-28T07:41:47.262Z,27.48
2019-04-28T07:44:15.899Z,25.88
2019-04-28T07:46:44.368Z,29.12
2019-04-28T07:49:12.995Z,23.47
2019-04-28T07:51:58.029Z,24.43
2019-04-28T07:54:27.200Z,26.35
2019-04-28T07:56:56.099Z,24.55
2019-04-28T07:59:24.625Z,24.85
2019-04-28T08:01:53.308Z,29.20
2019-04-28T08:04:21.839Z,28.23
2019-04-28T08:06:50.382Z,25.92
2019-04-28T08:09:18.976Z,36.53
2019-04-28T08:11:47.518Z,33.15
2019-04-28T08:14:16.051Z,40.17
2019-04-28T08:16:44.568Z,27.32
2019-04-28T08:19:13.083Z,26.68
2019-04-28T08:21:41.633Z,26.62
2019-04-28T08:24:10.334Z,31.17
2019-04-28T08:26:38.885Z,32.67
2019-04-28T08:29:07.567Z,29.32
2019-04-28T08:31:46.503Z,32.53
2019-04-28T08:34:16.907Z,27.73
2019-04-28T08:36:45.454Z,30.95
2019-04-28T08:39:14.932Z,30.10
2019-04-28T08:41:43.468Z,30.65
2019-04-28T08:44:12.170Z,28.40
2019-04-28T08:46:40.769Z,29.80
2019-04-28T08:49:09.337Z,25.00
2019-04-28T08:51:37.911Z,25.08
2019-04-28T08:54:07.062Z,26.42
2019-04-28T08:56:35.536Z,36.73
2019-04-28T08:59:05.023Z,31.40
2019-04-28T09:01:33.730Z,30.75
2019-04-28T09:04:14.487Z,29.63
2019-04-28T09:06:32.452Z,27.62
2019-04-28T09:09:01.062Z,26.52
2019-04-28T09:11:29.972Z,26.93
2019-04-28T09:13:58.512Z,23.22
2019-04-28T09:16:27.056Z,25.17
2019-04-28T09:18:55.623Z,26.73
2019-04-28T09:21:24.193Z,28.12
2019-04-28T09:23:52.760Z,28.83
2019-04-28T09:26:21.260Z,27.40
2019-04-28T09:28:49.896Z,30.88
2019-04-28T09:31:18.484Z,26.65
2019-04-28T09:33:47.223Z,30.25
2019-04-28T09:36:16.131Z,28.90
2019-04-28T09:38:44.789Z,28.60
2019-04-28T09:41:13.359Z,28.32
2019-04-28T09:43:59.728Z,28.77
2019-04-28T09:46:38.874Z,39.67
2019-04-28T09:49:07.507Z,24.90
2019-04-28T09:51:36.104Z,26.93
2019-04-28T09:54:04.843Z,23.85
2019-04-28T09:56:33.360Z,25.25
2019-04-28T09:59:01.900Z,25.23
2019-04-28T10:01:30.436Z,23.18
2019-04-28T10:03:59.010Z,24.60
2019-04-28T10:06:27.513Z,22.95
2019-04-28T10:08:56.088Z,22.93
2019-04-28T10:11:30.717Z,25.88
2019-04-28T10:13:56.966Z,28.85
2019-04-28T10:16:25.074Z,30.62
2019-04-28T10:18:53.639Z,27.05
2019-04-28T10:21:22.147Z,32.10
2019-04-28T10:23:50.687Z,28.92
2019-04-28T10:26:19.287Z,33.70
2019-04-28T10:28:47.937Z,30.37
2019-04-28T10:31:16.753Z,29.63
2019-04-28T10:33:46.998Z,29.23
2019-04-28T10:36:16.175Z,29.90
2019-04-28T10:38:46.354Z,26.57
2019-04-28T10:41:19.295Z,34.55
2019-04-28T10:43:47.902Z,32.03
2019-04-28T10:46:16.367Z,31.00
2019-04-28T10:48:44.882Z,28.98
2019-04-28T10:51:13.399Z,26.12
2019-04-28T10:53:41.945Z,33.18
2019-04-28T10:56:10.527Z,33.13
2019-04-28T10:58:40.660Z,38.08
2019-04-28T11:01:09.264Z,40.90
2019-04-28T11:03:37.833Z,39.75
2019-04-28T11:06:06.448Z,39.42
2019-04-28T11:08:42.609Z,42.90
2019-04-28T11:11:16.766Z,38.98
2019-04-28T11:13:45.320Z,47.83
2019-04-28T11:16:15.471Z,41.95
2019-04-28T11:18:44.082Z,57.80
2019-04-28T11:21:12.595Z,51.95
2019-04-28T11:23:41.205Z,49.77
2019-04-28T11:26:09.815Z,46.23
2019-04-28T11:28:38.391Z,38.88
2019-04-28T11:31:07.641Z,42.25
2019-04-28T11:33:49.667Z,41.42
2019-04-28T11:36:19.847Z,41.63
2019-04-28T11:38:48.371Z,38.63
2019-04-28T11:41:16.838Z,38.90
2019-04-28T11:43:45.797Z,43.10
2019-04-28T11:46:15.955Z,42.27
2019-04-28T11:48:44.533Z,43.33
2019-04-28T11:51:13.144Z,43.70
2019-04-28T11:53:41.799Z,40.75
2019-04-28T11:56:10.494Z,39.78
2019-04-28T11:58:39.433Z,42.30
2019-04-28T12:01:08.777Z,38.95
2019-04-28T12:03:37.349Z,47.43
2019-04-28T12:06:06.493Z,42.20
2019-04-28T12:08:35.043Z,42.17
2019-04-28T12:11:05.296Z,45.35
2019-04-28T12:13:38.130Z,41.40
2019-04-28T12:16:23.067Z,41.25
2019-04-28T12:18:53.308Z,38.23
2019-04-28T12:21:21.881Z,38.42
2019-04-28T12:23:50.421Z,36.48
2019-04-28T12:26:18.951Z,45.98
2019-04-28T12:28:47.530Z,46.88
2019-04-28T12:31:16.111Z,39.67
2019-04-28T12:33:44.712Z,39.45
2019-04-28T12:36:13.421Z,38.55
2019-04-28T12:38:42.069Z,41.80
2019-04-28T12:41:10.694Z,40.78
2019-04-28T12:43:39.169Z,45.80
2019-04-28T12:46:07.756Z,48.50
2019-04-28T12:48:36.444Z,38.63
2019-04-28T12:51:05.444Z,44.55
2019-04-28T12:53:33.995Z,42.27
2019-04-28T12:56:02.593Z,40.67
2019-04-28T12:58:31.139Z,37.53
2019-04-28T13:01:07.265Z,42.03
2019-04-28T13:03:40.162Z,43.38
2019-04-28T13:06:10.428Z,41.05
2019-04-28T13:08:38.993Z,39.27
2019-04-28T13:11:07.570Z,44.85
2019-04-28T13:13:36.122Z,40.12
2019-04-28T13:16:04.906Z,46.77
2019-04-28T13:18:33.423Z,48.87
2019-04-28T13:21:01.935Z,44.58
2019-04-28T13:23:30.512Z,51.90
2019-04-28T13:25:59.168Z,46.85
2019-04-28T13:28:30.524Z,48.83
2019-04-28T13:30:59.210Z,57.27
2019-04-28T13:33:27.750Z,48.68
2019-04-28T13:35:56.315Z,48.30
2019-04-28T13:38:24.872Z,41.95
2019-04-28T13:40:53.423Z,50.35
2019-04-28T13:43:21.986Z,48.50
2019-04-28T13:45:50.560Z,47.27
2019-04-28T13:48:19.125Z,40.60
2019-04-28T13:50:49.104Z,43.42
2019-04-28T13:53:17.948Z,45.12
2019-04-28T13:55:48.162Z,47.05
2019-04-28T13:58:18.412Z,50.48
2019-04-28T14:01:06.815Z,56.75
2019-04-28T14:03:52.216Z,49.77
2019-04-28T14:06:28.915Z,49.03
2019-04-28T14:08:57.702Z,45.15
2019-04-28T14:11:26.372Z,52.58
2019-04-28T14:13:54.924Z,46.73
2019-04-28T14:16:23.545Z,46.42
2019-04-28T14:18:52.082Z,51.98
2019-04-28T14:21:20.683Z,41.42
2019-04-28T14:23:49.324Z,46.68
2019-04-28T14:26:17.903Z,42.75
2019-04-28T14:28:46.446Z,40.75
2019-04-28T14:31:14.932Z,42.98
2019-04-28T14:33:46.392Z,42.43
2019-04-28T14:36:15.010Z,41.63
2019-04-28T14:38:43.560Z,46.42
2019-04-28T14:41:12.108Z,38.40
2019-04-28T14:43:40.741Z,44.23
2019-04-28T14:46:09.243Z,35.15
2019-04-28T14:48:37.817Z,32.63
2019-04-28T14:51:06.450Z,35.10
2019-04-28T14:53:35.015Z,39.08
2019-04-28T14:56:07.199Z,35.28
2019-04-28T14:58:35.073Z,34.23
2019-04-28T15:01:05.314Z,36.20
2019-04-28T15:03:35.647Z,42.53
2019-04-28T15:06:18.178Z,33.28
2019-04-28T15:09:04.452Z,38.73
2019-04-28T15:11:34.675Z,30.80
2019-04-28T15:14:03.236Z,34.75
2019-04-28T15:16:31.900Z,35.73
2019-04-28T15:19:00.467Z,35.63
2019-04-28T15:21:29.031Z,34.90
2019-04-28T15:23:57.605Z,37.13
2019-04-28T15:26:26.186Z,33.02
2019-04-28T15:28:54.689Z,36.15
2019-04-28T15:31:23.256Z,36.83
2019-04-28T15:33:51.935Z,32.45
2019-04-28T15:36:20.479Z,35.00
2019-04-28T15:38:49.040Z,33.45
2019-04-28T15:41:21.660Z,30.97
2019-04-28T15:43:48.354Z,30.30
2019-04-28T15:46:17.530Z,31.77
2019-04-28T15:48:46.165Z,30.68
2019-04-28T15:51:14.885Z,27.22
2019-04-28T15:53:45.067Z,26.00
2019-04-28T15:56:17.801Z,24.40
2019-04-28T15:58:46.273Z,26.17
2019-04-28T16:01:14.965Z,26.40
2019-04-28T16:03:43.520Z,23.92
2019-04-28T16:06:11.989Z,26.80
2019-04-28T16:08:40.560Z,26.33
2019-04-28T16:11:09.100Z,27.15
2019-04-28T16:13:37.672Z,26.68
2019-04-28T16:16:06.317Z,27.98
2019-04-28T16:18:34.990Z,23.73
2019-04-28T16:21:03.624Z,23.35
2019-04-28T16:23:32.224Z,23.47
2019-04-28T16:26:00.874Z,28.87
2019-04-28T16:28:29.671Z,22.60
2019-04-28T16:30:58.325Z,27.50
2019-04-28T16:33:26.919Z,28.62
2019-04-28T16:35:55.449Z,32.58
2019-04-28T16:38:24.056Z,34.20
2019-04-28T16:40:53.507Z,34.03
2019-04-28T16:43:22.084Z,30.00
2019-04-28T16:45:50.635Z,28.05
2019-04-28T16:48:19.647Z,26.82
2019-04-28T16:50:48.214Z,32.15
2019-04-28T16:53:16.754Z,32.05
2019-04-28T16:55:47.221Z,27.17
2019-04-28T16:58:29.539Z,29.30
2019-04-28T17:00:59.767Z,39.55
2019-04-28T17:03:30.118Z,32.55
2019-04-28T17:05:58.697Z,27.15
2019-04-28T17:08:27.312Z,31.75
2019-04-28T17:10:55.888Z,26.73
2019-04-28T17:13:24.471Z,30.37
2019-04-28T17:15:53.110Z,33.55
2019-04-28T17:18:21.677Z,30.45
2019-04-28T17:20:50.250Z,31.57
2019-04-28T17:23:18.817Z,33.48
2019-04-28T17:25:47.697Z,35.73
2019-04-28T17:28:16.197Z,31.80
2019-04-28T17:30:44.906Z,33.85
2019-04-28T17:33:13.473Z,34.95
2019-04-28T17:35:42.021Z,35.75
2019-04-28T17:38:10.579Z,35.80
2019-04-28T17:40:39.169Z,33.88
2019-04-28T17:43:08.419Z,31.90
2019-04-28T17:45:37.183Z,32.40
2019-04-28T17:48:07.433Z,33.67
2019-04-28T17:50:36.915Z,32.00
2019-04-28T17:53:05.549Z,35.63
2019-04-28T17:55:34.159Z,39.60
2019-04-28T17:58:02.732Z,36.13
2019-04-28T18:00:38.921Z,34.08
2019-04-28T18:03:18.562Z,35.95
2019-04-28T18:05:54.842Z,35.00
2019-04-28T18:08:23.408Z,31.30
2019-04-28T18:10:51.979Z,31.52
2019-04-28T18:13:21.429Z,34.18
2019-04-28T18:15:51.624Z,31.75
2019-04-28T18:18:24.707Z,33.18
2019-04-28T18:20:53.241Z,33.15
2019-04-28T18:23:22.148Z,40.17
2019-04-28T18:25:50.651Z,38.20
2019-04-28T18:28:19.121Z,40.38
2019-04-28T18:30:52.261Z,31.25
2019-04-28T18:33:34.686Z,30.57
2019-04-28T18:36:07.575Z,25.70
2019-04-28T18:38:40.719Z,28.87
2019-04-28T18:41:22.804Z,30.70
2019-04-28T18:44:01.947Z,28.05
2019-04-28T18:46:31.300Z,26.62
2019-04-28T18:48:59.878Z,22.50
2019-04-28T18:51:28.439Z,37.42
2019-04-28T18:53:56.945Z,54.10
2019-04-28T18:56:25.490Z,25.57
2019-04-28T18:58:54.073Z,46.05
2019-04-28T19:01:27.040Z,37.90
2019-04-28T19:03:55.662Z,24.23
2019-04-28T19:06:24.307Z,48.10
2019-04-28T19:08:54.456Z,29.80
2019-04-28T19:11:27.428Z,27.20
2019-04-28T19:14:00.679Z,27.85
2019-04-28T19:16:33.758Z,30.43
2019-04-28T19:19:09.643Z,30.92
2019-04-28T19:21:38.217Z,24.23
2019-04-28T19:24:06.799Z,30.05
2019-04-28T19:26:35.381Z,27.17
2019-04-28T19:29:04.032Z,27.93
2019-04-28T19:31:32.572Z,30.68
2019-04-28T19:34:01.964Z,27.82
2019-04-28T19:36:30.639Z,29.82
2019-04-28T19:39:03.351Z,24.77
2019-04-28T19:41:29.610Z,21.42
2019-04-28T19:43:58.178Z,24.45
2019-04-28T19:46:26.761Z,29.87
2019-04-28T19:48:55.324Z,30.95
2019-04-28T19:51:31.530Z,29.87
2019-04-28T19:53:54.115Z,38.13
2019-04-28T19:56:32.982Z,37.45
2019-04-28T19:59:18.449Z,36.10
2019-04-28T20:01:47.401Z,37.20
2019-04-28T20:04:15.982Z,40.73
2019-04-28T20:06:44.515Z,41.13
2019-04-28T20:09:13.149Z,40.05
2019-04-28T20:11:41.656Z,37.48
2019-04-28T20:14:10.126Z,55.15
2019-04-28T20:16:38.656Z,55.08
2019-04-28T20:19:07.230Z,57.05
2019-04-28T20:21:35.714Z,45.05
2019-04-28T20:24:04.855Z,46.42
2019-04-28T20:26:33.428Z,42.75
2019-04-28T20:29:02.008Z,46.15
2019-04-28T20:31:30.607Z,49.75
2019-04-28T20:33:59.187Z,51.88
2019-04-28T20:36:33.062Z,45.83
2019-04-28T20:39:15.617Z,42.50
2019-04-28T20:41:44.116Z,44.42
2019-04-28T20:44:12.673Z,51.10
2019-04-28T20:46:41.280Z,46.75
2019-04-28T20:49:09.820Z,50.17
2019-04-28T20:51:38.813Z,47.30
2019-04-28T20:54:07.379Z,51.08
2019-04-28T20:56:35.924Z,46.70
2019-04-28T20:59:04.506Z,45.83
2019-04-28T21:01:33.096Z,62.67
2019-04-28T21:04:01.730Z,41.92
2019-04-28T21:06:30.252Z,41.68
2019-04-28T21:08:58.796Z,40.38
2019-04-28T21:11:27.377Z,48.13
2019-04-28T21:13:55.959Z,41.58
2019-04-28T21:16:24.551Z,36.98
2019-04-28T21:18:53.126Z,33.33
2019-04-28T21:21:21.706Z,28.20
2019-04-28T21:23:50.336Z,30.88
2019-04-28T21:26:18.859Z,28.10
2019-04-28T21:28:47.333Z,29.37
2019-04-28T21:31:15.835Z,26.12
2019-04-28T21:33:44.353Z,25.65
2019-04-28T21:36:12.896Z,25.75
2019-04-28T21:38:41.898Z,24.40
2019-04-28T21:41:12.094Z,22.90
2019-04-28T21:43:42.272Z,20.55
2019-04-28T21:46:12.871Z,22.15
2019-04-28T21:48:45.908Z,21.93
2019-04-28T21:51:15.146Z,18.70
2019-04-28T21:53:43.821Z,20.65
2019-04-28T21:56:12.424Z,22.35
2019-04-28T21:58:40.959Z,24.00
2019-04-28T22:01:12.339Z,21.80
2019-04-28T22:03:40.849Z,22.20
2019-04-28T22:06:09.382Z,25.57
2019-04-28T22:08:37.874Z,23.75
2019-04-28T22:11:06.410Z,29.65
2019-04-28T22:13:34.963Z,29.02
2019-04-28T22:16:03.951Z,34.23
2019-04-28T22:18:32.458Z,39.13
2019-04-28T22:21:01.034Z,43.02
2019-04-28T22:23:40.055Z,43.25
2019-04-28T22:26:09.968Z,36.30
2019-04-28T22:28:38.629Z,37.30
2019-04-28T22:31:07.206Z,41.00
2019-04-28T22:33:35.783Z,38.45
2019-04-28T22:36:04.460Z,35.83
2019-04-28T22:38:32.955Z,35.23
2019-04-28T22:41:01.426Z,36.33
2019-04-28T22:43:29.925Z,30.57
2019-04-28T22:45:58.728Z,26.82
2019-04-28T22:48:27.536Z,31.68
2019-04-28T22:50:56.041Z,29.92
2019-04-28T22:53:26.261Z,28.20
2019-04-28T22:55:56.383Z,28.90
2019-04-28T22:58:29.682Z,28.67
2019-04-28T23:01:18.003Z,28.40
2019-04-28T23:04:00.033Z,32.30
2019-04-28T23:06:29.041Z,30.77
2019-04-28T23:08:57.670Z,32.40
2019-04-28T23:11:26.392Z,33.80
2019-04-28T23:13:54.858Z,34.53
2019-04-28T23:16:23.469Z,35.05
2019-04-28T23:18:52.946Z,41.30
2019-04-28T23:21:25.681Z,39.53
2019-04-28T23:23:54.147Z,40.03
2019-04-28T23:26:22.750Z,40.65
2019-04-28T23:28:51.322Z,39.23
2019-04-28T23:31:19.968Z,43.35
2019-04-28T23:33:49.827Z,36.08
2019-04-28T23:36:18.485Z,36.55
2019-04-28T23:38:47.022Z,37.73
2019-04-28T23:41:20.079Z,33.67
2019-04-28T23:43:48.612Z,41.28
2019-04-28T23:46:17.108Z,40.90
2019-04-28T23:48:45.717Z,36.53
2019-04-28T23:51:18.606Z,40.12
2019-04-28T23:53:57.355Z,39.38
2019-04-28T23:56:25.914Z,39.55
2019-04-28T23:58:54.496Z,39.23
